sensor_id;sensor_type;location;lat;lon;timestamp;P1;durP1;ratioP1;P2;durP2;ratioP2
60312;SDS011;46158;52.850;6.970;2023-06-19T00:01:25;9.80;;;4.50;;
60312;SDS011;46158;52.850;6.970;2023-06-19T00:03:54;12.85;;;4.60;;
60312;SDS011;46158;52.850;6.970;2023-06-19T00:06:20;10.82;;;4.45;;
60312;SDS011;46158;52.850;6.970;2023-06-19T00:08:49;10.13;;;4.30;;
60312;SDS011;46158;52.850;6.970;2023-06-19T00:11:16;10.25;;;4.40;;
60312;SDS011;46158;52.850;6.970;2023-06-19T00:13:49;12.55;;;5.00;;
60312;SDS011;46158;52.850;6.970;2023-06-19T00:16:19;9.60;;;4.35;;
60312;SDS011;46158;52.850;6.970;2023-06-19T00:18:46;11.00;;;4.75;;
60312;SDS011;46158;52.850;6.970;2023-06-19T00:21:14;10.82;;;4.80;;
60312;SDS011;46158;52.850;6.970;2023-06-19T00:23:41;10.68;;;4.40;;
60312;SDS011;46158;52.850;6.970;2023-06-19T00:26:07;11.07;;;4.85;;
60312;SDS011;46158;52.850;6.970;2023-06-19T00:28:33;11.77;;;4.50;;
60312;SDS011;46158;52.850;6.970;2023-06-19T00:31:00;10.52;;;4.50;;
60312;SDS011;46158;52.850;6.970;2023-06-19T00:33:26;10.45;;;4.43;;
60312;SDS011;46158;52.850;6.970;2023-06-19T00:35:55;11.05;;;4.50;;
60312;SDS011;46158;52.850;6.970;2023-06-19T00:38:21;11.27;;;4.82;;
60312;SDS011;46158;52.850;6.970;2023-06-19T00:40:47;10.38;;;4.50;;
60312;SDS011;46158;52.850;6.970;2023-06-19T00:43:16;11.87;;;4.83;;
60312;SDS011;46158;52.850;6.970;2023-06-19T00:45:42;10.10;;;4.55;;
60312;SDS011;46158;52.850;6.970;2023-06-19T00:48:08;11.45;;;4.90;;
60312;SDS011;46158;52.850;6.970;2023-06-19T00:50:37;11.30;;;4.85;;
60312;SDS011;46158;52.850;6.970;2023-06-19T00:53:10;11.98;;;5.10;;
60312;SDS011;46158;52.850;6.970;2023-06-19T00:55:37;11.65;;;4.85;;
60312;SDS011;46158;52.850;6.970;2023-06-19T00:58:09;11.20;;;4.60;;
60312;SDS011;46158;52.850;6.970;2023-06-19T01:03:05;12.30;;;4.53;;
60312;SDS011;46158;52.850;6.970;2023-06-19T01:05:31;10.52;;;4.70;;
60312;SDS011;46158;52.850;6.970;2023-06-19T01:11:05;11.90;;;4.82;;
60312;SDS011;46158;52.850;6.970;2023-06-19T01:13:41;11.57;;;4.88;;
60312;SDS011;46158;52.850;6.970;2023-06-19T01:16:12;11.43;;;5.00;;
60312;SDS011;46158;52.850;6.970;2023-06-19T01:18:40;10.05;;;4.50;;
60312;SDS011;46158;52.850;6.970;2023-06-19T01:21:16;10.30;;;4.30;;
60312;SDS011;46158;52.850;6.970;2023-06-19T01:23:46;12.05;;;4.90;;
60312;SDS011;46158;52.850;6.970;2023-06-19T01:26:16;12.57;;;5.03;;
60312;SDS011;46158;52.850;6.970;2023-06-19T01:28:48;10.98;;;4.60;;
60312;SDS011;46158;52.850;6.970;2023-06-19T01:31:20;12.23;;;5.00;;
60312;SDS011;46158;52.850;6.970;2023-06-19T01:33:55;12.32;;;4.88;;
60312;SDS011;46158;52.850;6.970;2023-06-19T01:36:28;10.38;;;4.65;;
60312;SDS011;46158;52.850;6.970;2023-06-19T01:38:55;12.90;;;4.90;;
60312;SDS011;46158;52.850;6.970;2023-06-19T01:41:29;12.65;;;4.70;;
60312;SDS011;46158;52.850;6.970;2023-06-19T01:43:58;11.88;;;5.03;;
60312;SDS011;46158;52.850;6.970;2023-06-19T01:46:25;11.05;;;4.75;;
60312;SDS011;46158;52.850;6.970;2023-06-19T01:48:51;13.40;;;5.07;;
60312;SDS011;46158;52.850;6.970;2023-06-19T01:51:21;12.27;;;4.82;;
60312;SDS011;46158;52.850;6.970;2023-06-19T01:53:56;13.32;;;5.22;;
60312;SDS011;46158;52.850;6.970;2023-06-19T01:56:22;10.95;;;4.88;;
60312;SDS011;46158;52.850;6.970;2023-06-19T01:58:49;12.13;;;5.15;;
60312;SDS011;46158;52.850;6.970;2023-06-19T02:01:19;13.38;;;5.30;;
60312;SDS011;46158;52.850;6.970;2023-06-19T02:03:49;12.15;;;5.18;;
60312;SDS011;46158;52.850;6.970;2023-06-19T02:06:15;11.65;;;4.95;;
60312;SDS011;46158;52.850;6.970;2023-06-19T02:08:41;12.88;;;5.22;;
60312;SDS011;46158;52.850;6.970;2023-06-19T02:11:14;13.20;;;5.10;;
60312;SDS011;46158;52.850;6.970;2023-06-19T02:13:41;13.88;;;5.30;;
60312;SDS011;46158;52.850;6.970;2023-06-19T02:16:08;13.20;;;5.25;;
60312;SDS011;46158;52.850;6.970;2023-06-19T02:18:34;11.68;;;5.07;;
60312;SDS011;46158;52.850;6.970;2023-06-19T02:21:00;11.27;;;4.90;;
60312;SDS011;46158;52.850;6.970;2023-06-19T02:23:28;12.55;;;5.00;;
60312;SDS011;46158;52.850;6.970;2023-06-19T02:25:58;11.88;;;4.70;;
60312;SDS011;46158;52.850;6.970;2023-06-19T02:28:24;13.85;;;5.25;;
60312;SDS011;46158;52.850;6.970;2023-06-19T02:30:52;11.38;;;4.65;;
60312;SDS011;46158;52.850;6.970;2023-06-19T02:33:19;13.52;;;5.25;;
60312;SDS011;46158;52.850;6.970;2023-06-19T02:35:45;11.55;;;4.78;;
60312;SDS011;46158;52.850;6.970;2023-06-19T02:38:12;13.00;;;5.00;;
60312;SDS011;46158;52.850;6.970;2023-06-19T02:40:41;12.82;;;5.28;;
60312;SDS011;46158;52.850;6.970;2023-06-19T02:43:07;12.35;;;5.10;;
60312;SDS011;46158;52.850;6.970;2023-06-19T02:45:34;13.43;;;5.20;;
60312;SDS011;46158;52.850;6.970;2023-06-19T02:48:00;11.73;;;4.90;;
60312;SDS011;46158;52.850;6.970;2023-06-19T02:50:26;13.85;;;5.40;;
60312;SDS011;46158;52.850;6.970;2023-06-19T02:52:53;12.25;;;5.30;;
60312;SDS011;46158;52.850;6.970;2023-06-19T02:55:19;11.50;;;4.93;;
60312;SDS011;46158;52.850;6.970;2023-06-19T02:57:45;13.90;;;5.50;;
60312;SDS011;46158;52.850;6.970;2023-06-19T03:00:13;12.25;;;4.90;;
60312;SDS011;46158;52.850;6.970;2023-06-19T03:02:39;13.02;;;5.10;;
60312;SDS011;46158;52.850;6.970;2023-06-19T03:05:09;12.77;;;5.28;;
60312;SDS011;46158;52.850;6.970;2023-06-19T03:07:41;13.23;;;5.00;;
60312;SDS011;46158;52.850;6.970;2023-06-19T03:10:08;13.43;;;5.03;;
60312;SDS011;46158;52.850;6.970;2023-06-19T03:12:34;11.60;;;4.95;;
60312;SDS011;46158;52.850;6.970;2023-06-19T03:15:00;12.20;;;5.00;;
60312;SDS011;46158;52.850;6.970;2023-06-19T03:17:31;11.38;;;5.13;;
60312;SDS011;46158;52.850;6.970;2023-06-19T03:19:57;13.95;;;5.32;;
60312;SDS011;46158;52.850;6.970;2023-06-19T03:22:26;12.70;;;5.10;;
60312;SDS011;46158;52.850;6.970;2023-06-19T03:24:51;11.63;;;5.05;;
60312;SDS011;46158;52.850;6.970;2023-06-19T03:27:21;12.93;;;5.20;;
60312;SDS011;46158;52.850;6.970;2023-06-19T03:29:54;11.88;;;4.93;;
60312;SDS011;46158;52.850;6.970;2023-06-19T03:32:20;11.77;;;4.85;;
60312;SDS011;46158;52.850;6.970;2023-06-19T03:34:46;11.15;;;4.70;;
60312;SDS011;46158;52.850;6.970;2023-06-19T03:37:19;12.77;;;5.20;;
60312;SDS011;46158;52.850;6.970;2023-06-19T03:39:45;11.43;;;4.90;;
60312;SDS011;46158;52.850;6.970;2023-06-19T03:42:11;11.45;;;4.90;;
60312;SDS011;46158;52.850;6.970;2023-06-19T03:44:37;10.90;;;4.88;;
60312;SDS011;46158;52.850;6.970;2023-06-19T03:47:03;12.35;;;4.90;;
60312;SDS011;46158;52.850;6.970;2023-06-19T03:49:29;11.60;;;4.70;;
60312;SDS011;46158;52.850;6.970;2023-06-19T03:51:58;11.38;;;4.80;;
60312;SDS011;46158;52.850;6.970;2023-06-19T03:54:24;12.00;;;4.82;;
60312;SDS011;46158;52.850;6.970;2023-06-19T03:56:51;11.15;;;4.90;;
60312;SDS011;46158;52.850;6.970;2023-06-19T03:59:17;12.20;;;4.85;;
60312;SDS011;46158;52.850;6.970;2023-06-19T04:01:43;10.88;;;4.80;;
60312;SDS011;46158;52.850;6.970;2023-06-19T04:04:09;11.93;;;5.07;;
60312;SDS011;46158;52.850;6.970;2023-06-19T04:06:35;10.82;;;4.57;;
60312;SDS011;46158;52.850;6.970;2023-06-19T04:09:01;11.52;;;4.88;;
60312;SDS011;46158;52.850;6.970;2023-06-19T04:11:36;12.10;;;5.00;;
60312;SDS011;46158;52.850;6.970;2023-06-19T04:14:14;12.20;;;4.93;;
60312;SDS011;46158;52.850;6.970;2023-06-19T04:16:40;11.02;;;4.50;;
60312;SDS011;46158;52.850;6.970;2023-06-19T04:19:11;10.73;;;4.75;;
60312;SDS011;46158;52.850;6.970;2023-06-19T04:21:43;11.80;;;4.78;;
60312;SDS011;46158;52.850;6.970;2023-06-19T04:24:12;10.00;;;4.50;;
60312;SDS011;46158;52.850;6.970;2023-06-19T04:26:38;10.68;;;4.63;;
60312;SDS011;46158;52.850;6.970;2023-06-19T04:29:04;10.52;;;4.35;;
60312;SDS011;46158;52.850;6.970;2023-06-19T04:31:32;9.95;;;4.38;;
60312;SDS011;46158;52.850;6.970;2023-06-19T04:34:05;9.90;;;4.43;;
60312;SDS011;46158;52.850;6.970;2023-06-19T04:36:32;11.88;;;4.65;;
60312;SDS011;46158;52.850;6.970;2023-06-19T04:38:57;14.10;;;5.13;;
60312;SDS011;46158;52.850;6.970;2023-06-19T04:41:29;11.07;;;4.70;;
60312;SDS011;46158;52.850;6.970;2023-06-19T04:43:55;12.25;;;4.97;;
60312;SDS011;46158;52.850;6.970;2023-06-19T04:46:22;11.02;;;4.72;;
60312;SDS011;46158;52.850;6.970;2023-06-19T04:48:48;12.00;;;4.70;;
60312;SDS011;46158;52.850;6.970;2023-06-19T04:51:19;11.77;;;4.60;;
60312;SDS011;46158;52.850;6.970;2023-06-19T04:53:46;10.43;;;4.47;;
60312;SDS011;46158;52.850;6.970;2023-06-19T04:56:16;12.88;;;5.00;;
60312;SDS011;46158;52.850;6.970;2023-06-19T04:58:45;11.95;;;4.63;;
60312;SDS011;46158;52.850;6.970;2023-06-19T05:01:24;10.82;;;4.68;;
60312;SDS011;46158;52.850;6.970;2023-06-19T05:03:53;11.85;;;5.00;;
60312;SDS011;46158;52.850;6.970;2023-06-19T05:06:23;10.77;;;4.40;;
60312;SDS011;46158;52.850;6.970;2023-06-19T05:08:52;13.13;;;4.60;;
60312;SDS011;46158;52.850;6.970;2023-06-19T05:11:19;12.13;;;4.80;;
60312;SDS011;46158;52.850;6.970;2023-06-19T05:13:44;12.52;;;4.90;;
60312;SDS011;46158;52.850;6.970;2023-06-19T05:16:10;12.35;;;4.53;;
60312;SDS011;46158;52.850;6.970;2023-06-19T05:18:40;12.00;;;4.95;;
60312;SDS011;46158;52.850;6.970;2023-06-19T05:21:06;11.70;;;4.78;;
60312;SDS011;46158;52.850;6.970;2023-06-19T05:23:32;10.75;;;4.22;;
60312;SDS011;46158;52.850;6.970;2023-06-19T05:26:03;13.25;;;4.90;;
60312;SDS011;46158;52.850;6.970;2023-06-19T05:28:35;10.60;;;4.57;;
60312;SDS011;46158;52.850;6.970;2023-06-19T05:31:01;10.52;;;4.55;;
60312;SDS011;46158;52.850;6.970;2023-06-19T05:33:54;12.90;;;4.93;;
60312;SDS011;46158;52.850;6.970;2023-06-19T05:36:19;11.45;;;4.47;;
60312;SDS011;46158;52.850;6.970;2023-06-19T05:38:45;11.13;;;4.40;;
60312;SDS011;46158;52.850;6.970;2023-06-19T05:41:13;11.05;;;4.53;;
60312;SDS011;46158;52.850;6.970;2023-06-19T05:43:41;13.52;;;4.40;;
60312;SDS011;46158;52.850;6.970;2023-06-19T05:46:08;10.82;;;4.38;;
60312;SDS011;46158;52.850;6.970;2023-06-19T05:48:40;10.60;;;4.30;;
60312;SDS011;46158;52.850;6.970;2023-06-19T05:51:09;11.30;;;4.38;;
60312;SDS011;46158;52.850;6.970;2023-06-19T05:53:36;12.63;;;4.55;;
60312;SDS011;46158;52.850;6.970;2023-06-19T05:56:14;13.15;;;4.60;;
60312;SDS011;46158;52.850;6.970;2023-06-19T05:58:41;10.50;;;4.30;;
60312;SDS011;46158;52.850;6.970;2023-06-19T06:01:10;9.75;;;4.18;;
60312;SDS011;46158;52.850;6.970;2023-06-19T06:03:43;11.90;;;4.57;;
60312;SDS011;46158;52.850;6.970;2023-06-19T06:08:40;10.80;;;4.05;;
60312;SDS011;46158;52.850;6.970;2023-06-19T06:11:06;10.98;;;4.30;;
60312;SDS011;46158;52.850;6.970;2023-06-19T06:13:32;12.32;;;4.47;;
60312;SDS011;46158;52.850;6.970;2023-06-19T06:16:00;11.32;;;4.22;;
60312;SDS011;46158;52.850;6.970;2023-06-19T06:18:26;11.30;;;4.40;;
60312;SDS011;46158;52.850;6.970;2023-06-19T06:20:53;10.50;;;4.20;;
60312;SDS011;46158;52.850;6.970;2023-06-19T06:23:24;10.95;;;4.18;;
60312;SDS011;46158;52.850;6.970;2023-06-19T06:25:50;10.95;;;4.45;;
60312;SDS011;46158;52.850;6.970;2023-06-19T06:28:16;11.95;;;4.38;;
60312;SDS011;46158;52.850;6.970;2023-06-19T06:30:45;10.60;;;4.10;;
60312;SDS011;46158;52.850;6.970;2023-06-19T06:33:10;13.02;;;4.43;;
60312;SDS011;46158;52.850;6.970;2023-06-19T06:35:42;9.47;;;3.93;;
60312;SDS011;46158;52.850;6.970;2023-06-19T06:38:23;10.00;;;4.13;;
60312;SDS011;46158;52.850;6.970;2023-06-19T06:40:49;13.98;;;4.80;;
60312;SDS011;46158;52.850;6.970;2023-06-19T06:43:15;15.23;;;4.75;;
60312;SDS011;46158;52.850;6.970;2023-06-19T06:45:45;12.80;;;4.60;;
60312;SDS011;46158;52.850;6.970;2023-06-19T06:48:13;15.13;;;4.80;;
60312;SDS011;46158;52.850;6.970;2023-06-19T06:50:41;14.07;;;4.57;;
60312;SDS011;46158;52.850;6.970;2023-06-19T06:53:07;15.32;;;4.70;;
60312;SDS011;46158;52.850;6.970;2023-06-19T06:55:34;15.77;;;4.90;;
60312;SDS011;46158;52.850;6.970;2023-06-19T06:58:00;15.75;;;4.75;;
60312;SDS011;46158;52.850;6.970;2023-06-19T07:00:25;14.75;;;4.72;;
60312;SDS011;46158;52.850;6.970;2023-06-19T07:02:55;14.95;;;4.70;;
60312;SDS011;46158;52.850;6.970;2023-06-19T07:05:27;15.90;;;5.18;;
60312;SDS011;46158;52.850;6.970;2023-06-19T07:08:01;17.35;;;5.05;;
60312;SDS011;46158;52.850;6.970;2023-06-19T07:10:33;16.60;;;5.22;;
60312;SDS011;46158;52.850;6.970;2023-06-19T07:13:01;17.63;;;5.47;;
60312;SDS011;46158;52.850;6.970;2023-06-19T07:15:28;15.68;;;5.10;;
60312;SDS011;46158;52.850;6.970;2023-06-19T07:18:02;15.52;;;4.57;;
60312;SDS011;46158;52.850;6.970;2023-06-19T07:20:31;19.17;;;5.20;;
60312;SDS011;46158;52.850;6.970;2023-06-19T07:22:57;15.70;;;4.80;;
60312;SDS011;46158;52.850;6.970;2023-06-19T07:25:28;16.58;;;4.88;;
60312;SDS011;46158;52.850;6.970;2023-06-19T07:27:54;16.08;;;4.75;;
60312;SDS011;46158;52.850;6.970;2023-06-19T07:30:20;17.73;;;4.97;;
60312;SDS011;46158;52.850;6.970;2023-06-19T07:32:55;17.80;;;4.93;;
60312;SDS011;46158;52.850;6.970;2023-06-19T07:35:40;15.65;;;4.85;;
60312;SDS011;46158;52.850;6.970;2023-06-19T07:38:13;14.73;;;4.72;;
60312;SDS011;46158;52.850;6.970;2023-06-19T07:40:42;14.25;;;4.45;;
60312;SDS011;46158;52.850;6.970;2023-06-19T07:43:08;16.95;;;5.05;;
60312;SDS011;46158;52.850;6.970;2023-06-19T07:45:34;16.80;;;5.03;;
60312;SDS011;46158;52.850;6.970;2023-06-19T07:48:03;14.87;;;5.00;;
60312;SDS011;46158;52.850;6.970;2023-06-19T07:50:30;16.05;;;4.97;;
60312;SDS011;46158;52.850;6.970;2023-06-19T07:53:00;15.35;;;4.80;;
60312;SDS011;46158;52.850;6.970;2023-06-19T07:55:29;14.02;;;4.70;;
60312;SDS011;46158;52.850;6.970;2023-06-19T07:57:55;17.23;;;5.10;;
60312;SDS011;46158;52.850;6.970;2023-06-19T08:00:24;15.50;;;4.77;;
60312;SDS011;46158;52.850;6.970;2023-06-19T08:02:56;16.80;;;4.70;;
60312;SDS011;46158;52.850;6.970;2023-06-19T08:05:22;14.03;;;4.33;;
60312;SDS011;46158;52.850;6.970;2023-06-19T08:07:48;14.95;;;4.60;;
60312;SDS011;46158;52.850;6.970;2023-06-19T08:10:23;14.07;;;4.50;;
60312;SDS011;46158;52.850;6.970;2023-06-19T08:12:56;17.15;;;4.88;;
60312;SDS011;46158;52.850;6.970;2023-06-19T08:15:22;14.10;;;4.60;;
60312;SDS011;46158;52.850;6.970;2023-06-19T08:17:48;15.95;;;4.97;;
60312;SDS011;46158;52.850;6.970;2023-06-19T08:20:15;17.35;;;5.13;;
60312;SDS011;46158;52.850;6.970;2023-06-19T08:22:48;16.15;;;4.53;;
60312;SDS011;46158;52.850;6.970;2023-06-19T08:25:17;14.82;;;4.93;;
60312;SDS011;46158;52.850;6.970;2023-06-19T08:27:43;15.65;;;4.60;;
60312;SDS011;46158;52.850;6.970;2023-06-19T08:30:15;16.43;;;5.00;;
60312;SDS011;46158;52.850;6.970;2023-06-19T08:32:42;15.25;;;4.55;;
60312;SDS011;46158;52.850;6.970;2023-06-19T08:35:09;13.20;;;4.63;;
60312;SDS011;46158;52.850;6.970;2023-06-19T08:37:36;14.73;;;4.70;;
60312;SDS011;46158;52.850;6.970;2023-06-19T08:42:54;16.60;;;4.90;;
60312;SDS011;46158;52.850;6.970;2023-06-19T08:45:21;14.05;;;4.50;;
60312;SDS011;46158;52.850;6.970;2023-06-19T08:47:47;17.38;;;4.85;;
60312;SDS011;46158;52.850;6.970;2023-06-19T08:50:15;16.10;;;4.97;;
60312;SDS011;46158;52.850;6.970;2023-06-19T08:52:41;16.13;;;5.00;;
60312;SDS011;46158;52.850;6.970;2023-06-19T08:55:16;13.80;;;4.70;;
60312;SDS011;46158;52.850;6.970;2023-06-19T08:57:43;15.63;;;5.10;;
60312;SDS011;46158;52.850;6.970;2023-06-19T09:00:22;16.75;;;4.93;;
60312;SDS011;46158;52.850;6.970;2023-06-19T09:03:00;14.60;;;4.50;;
60312;SDS011;46158;52.850;6.970;2023-06-19T09:05:28;17.40;;;5.05;;
60312;SDS011;46158;52.850;6.970;2023-06-19T09:07:56;14.18;;;4.70;;
60312;SDS011;46158;52.850;6.970;2023-06-19T09:10:28;14.60;;;4.68;;
60312;SDS011;46158;52.850;6.970;2023-06-19T09:13:01;16.48;;;4.75;;
60312;SDS011;46158;52.850;6.970;2023-06-19T09:15:30;14.85;;;4.63;;
60312;SDS011;46158;52.850;6.970;2023-06-19T09:20:31;16.52;;;4.75;;
60312;SDS011;46158;52.850;6.970;2023-06-19T09:22:58;14.57;;;4.30;;
60312;SDS011;46158;52.850;6.970;2023-06-19T09:25:25;14.80;;;4.60;;
60312;SDS011;46158;52.850;6.970;2023-06-19T09:27:52;16.35;;;4.80;;
60312;SDS011;46158;52.850;6.970;2023-06-19T09:30:19;15.68;;;4.93;;
60312;SDS011;46158;52.850;6.970;2023-06-19T09:32:46;14.00;;;4.75;;
60312;SDS011;46158;52.850;6.970;2023-06-19T09:35:12;14.02;;;4.60;;
60312;SDS011;46158;52.850;6.970;2023-06-19T09:37:40;16.05;;;4.93;;
60312;SDS011;46158;52.850;6.970;2023-06-19T09:40:08;16.65;;;5.22;;
60312;SDS011;46158;52.850;6.970;2023-06-19T09:42:40;16.50;;;4.72;;
60312;SDS011;46158;52.850;6.970;2023-06-19T09:45:11;14.73;;;4.88;;
60312;SDS011;46158;52.850;6.970;2023-06-19T09:47:54;14.75;;;5.03;;
60312;SDS011;46158;52.850;6.970;2023-06-19T09:50:20;16.15;;;5.43;;
60312;SDS011;46158;52.850;6.970;2023-06-19T09:52:55;14.50;;;4.47;;
60312;SDS011;46158;52.850;6.970;2023-06-19T09:55:24;14.02;;;4.35;;
60312;SDS011;46158;52.850;6.970;2023-06-19T09:57:56;14.55;;;4.57;;
60312;SDS011;46158;52.850;6.970;2023-06-19T10:00:23;16.92;;;5.15;;
60312;SDS011;46158;52.850;6.970;2023-06-19T10:02:56;15.48;;;4.93;;
60312;SDS011;46158;52.850;6.970;2023-06-19T10:05:31;16.92;;;4.95;;
60312;SDS011;46158;52.850;6.970;2023-06-19T10:08:00;15.35;;;4.97;;
60312;SDS011;46158;52.850;6.970;2023-06-19T10:10:30;15.90;;;4.70;;
60312;SDS011;46158;52.850;6.970;2023-06-19T10:12:59;16.75;;;5.13;;
60312;SDS011;46158;52.850;6.970;2023-06-19T10:18:12;15.98;;;5.53;;
60312;SDS011;46158;52.850;6.970;2023-06-19T10:20:44;16.33;;;5.57;;
60312;SDS011;46158;52.850;6.970;2023-06-19T10:23:12;16.08;;;5.40;;
60312;SDS011;46158;52.850;6.970;2023-06-19T10:25:47;13.60;;;5.00;;
60312;SDS011;46158;52.850;6.970;2023-06-19T10:28:24;14.98;;;5.20;;
60312;SDS011;46158;52.850;6.970;2023-06-19T10:33:29;15.77;;;5.18;;
60312;SDS011;46158;52.850;6.970;2023-06-19T10:35:58;16.60;;;5.07;;
60312;SDS011;46158;52.850;6.970;2023-06-19T10:38:47;17.00;;;5.57;;
60312;SDS011;46158;52.850;6.970;2023-06-19T10:41:17;17.38;;;5.53;;
60312;SDS011;46158;52.850;6.970;2023-06-19T10:43:55;18.58;;;5.88;;
60312;SDS011;46158;52.850;6.970;2023-06-19T10:46:34;17.33;;;5.82;;
60312;SDS011;46158;52.850;6.970;2023-06-19T10:49:02;15.98;;;5.50;;
60312;SDS011;46158;52.850;6.970;2023-06-19T10:51:39;18.10;;;6.05;;
60312;SDS011;46158;52.850;6.970;2023-06-19T10:54:08;18.20;;;6.28;;
60312;SDS011;46158;52.850;6.970;2023-06-19T10:56:34;17.73;;;5.80;;
60312;SDS011;46158;52.850;6.970;2023-06-19T10:59:02;18.80;;;5.75;;
60312;SDS011;46158;52.850;6.970;2023-06-19T11:01:41;18.15;;;6.22;;
60312;SDS011;46158;52.850;6.970;2023-06-19T11:04:15;17.35;;;5.80;;
60312;SDS011;46158;52.850;6.970;2023-06-19T11:06:43;17.55;;;5.70;;
60312;SDS011;46158;52.850;6.970;2023-06-19T11:09:11;16.90;;;6.13;;
60312;SDS011;46158;52.850;6.970;2023-06-19T11:11:39;16.60;;;5.80;;
60312;SDS011;46158;52.850;6.970;2023-06-19T11:14:06;18.02;;;5.78;;
60312;SDS011;46158;52.850;6.970;2023-06-19T11:19:20;16.90;;;5.53;;
60312;SDS011;46158;52.850;6.970;2023-06-19T11:21:51;15.95;;;5.60;;
60312;SDS011;46158;52.850;6.970;2023-06-19T11:24:25;16.90;;;5.57;;
60312;SDS011;46158;52.850;6.970;2023-06-19T11:26:51;15.68;;;5.80;;
60312;SDS011;46158;52.850;6.970;2023-06-19T11:29:22;18.17;;;5.93;;
60312;SDS011;46158;52.850;6.970;2023-06-19T11:32:14;17.08;;;5.65;;
60312;SDS011;46158;52.850;6.970;2023-06-19T11:35:08;16.42;;;5.55;;
60312;SDS011;46158;52.850;6.970;2023-06-19T11:37:45;17.73;;;5.72;;
60312;SDS011;46158;52.850;6.970;2023-06-19T11:40:11;16.58;;;5.65;;
60312;SDS011;46158;52.850;6.970;2023-06-19T11:42:48;16.52;;;5.90;;
60312;SDS011;46158;52.850;6.970;2023-06-19T11:45:17;18.50;;;6.20;;
60312;SDS011;46158;52.850;6.970;2023-06-19T11:47:47;17.15;;;6.00;;
60312;SDS011;46158;52.850;6.970;2023-06-19T11:50:17;18.15;;;5.80;;
60312;SDS011;46158;52.850;6.970;2023-06-19T11:52:47;15.57;;;5.35;;
60312;SDS011;46158;52.850;6.970;2023-06-19T11:55:13;16.70;;;5.72;;
60312;SDS011;46158;52.850;6.970;2023-06-19T11:57:41;16.25;;;5.53;;
60312;SDS011;46158;52.850;6.970;2023-06-19T12:00:12;16.45;;;5.80;;
60312;SDS011;46158;52.850;6.970;2023-06-19T12:02:43;14.75;;;5.30;;
60312;SDS011;46158;52.850;6.970;2023-06-19T12:05:19;18.33;;;6.00;;
60312;SDS011;46158;52.850;6.970;2023-06-19T12:07:48;15.77;;;5.50;;
60312;SDS011;46158;52.850;6.970;2023-06-19T12:10:14;16.30;;;5.50;;
60312;SDS011;46158;52.850;6.970;2023-06-19T12:12:53;16.80;;;5.60;;
60312;SDS011;46158;52.850;6.970;2023-06-19T12:15:19;17.00;;;5.50;;
60312;SDS011;46158;52.850;6.970;2023-06-19T12:17:45;14.43;;;5.38;;
60312;SDS011;46158;52.850;6.970;2023-06-19T12:20:12;16.33;;;5.20;;
60312;SDS011;46158;52.850;6.970;2023-06-19T12:22:44;16.00;;;5.70;;
60312;SDS011;46158;52.850;6.970;2023-06-19T12:25:10;17.67;;;5.55;;
60312;SDS011;46158;52.850;6.970;2023-06-19T12:27:39;17.23;;;5.60;;
60312;SDS011;46158;52.850;6.970;2023-06-19T12:30:05;17.73;;;5.73;;
60312;SDS011;46158;52.850;6.970;2023-06-19T12:32:33;17.10;;;5.65;;
60312;SDS011;46158;52.850;6.970;2023-06-19T12:34:59;18.27;;;6.03;;
60312;SDS011;46158;52.850;6.970;2023-06-19T12:37:25;17.70;;;5.88;;
60312;SDS011;46158;52.850;6.970;2023-06-19T12:39:51;16.25;;;5.43;;
60312;SDS011;46158;52.850;6.970;2023-06-19T12:42:17;16.50;;;5.80;;
60312;SDS011;46158;52.850;6.970;2023-06-19T12:44:43;18.38;;;5.97;;
60312;SDS011;46158;52.850;6.970;2023-06-19T12:47:11;20.00;;;6.00;;
60312;SDS011;46158;52.850;6.970;2023-06-19T12:49:38;18.52;;;5.88;;
60312;SDS011;46158;52.850;6.970;2023-06-19T12:52:10;18.88;;;5.60;;
60312;SDS011;46158;52.850;6.970;2023-06-19T12:54:36;18.02;;;5.95;;
60312;SDS011;46158;52.850;6.970;2023-06-19T12:57:02;18.25;;;6.38;;
60312;SDS011;46158;52.850;6.970;2023-06-19T12:59:28;18.40;;;5.88;;
60312;SDS011;46158;52.850;6.970;2023-06-19T13:01:57;18.63;;;6.03;;
60312;SDS011;46158;52.850;6.970;2023-06-19T13:04:23;17.95;;;5.72;;
60312;SDS011;46158;52.850;6.970;2023-06-19T13:06:49;17.48;;;6.22;;
60312;SDS011;46158;52.850;6.970;2023-06-19T13:09:16;17.27;;;6.07;;
60312;SDS011;46158;52.850;6.970;2023-06-19T13:11:42;17.27;;;6.00;;
60312;SDS011;46158;52.850;6.970;2023-06-19T13:14:08;18.95;;;6.15;;
60312;SDS011;46158;52.850;6.970;2023-06-19T13:16:35;17.33;;;6.22;;
60312;SDS011;46158;52.850;6.970;2023-06-19T13:19:04;16.92;;;6.35;;
60312;SDS011;46158;52.850;6.970;2023-06-19T13:21:29;17.50;;;6.32;;
60312;SDS011;46158;52.850;6.970;2023-06-19T13:23:56;17.05;;;6.20;;
60312;SDS011;46158;52.850;6.970;2023-06-19T13:26:25;19.23;;;6.72;;
60312;SDS011;46158;52.850;6.970;2023-06-19T13:28:50;17.45;;;6.47;;
60312;SDS011;46158;52.850;6.970;2023-06-19T13:31:17;20.27;;;6.65;;
60312;SDS011;46158;52.850;6.970;2023-06-19T13:33:43;18.00;;;6.50;;
60312;SDS011;46158;52.850;6.970;2023-06-19T13:36:11;16.73;;;6.30;;
60312;SDS011;46158;52.850;6.970;2023-06-19T13:38:41;17.10;;;6.30;;
60312;SDS011;46158;52.850;6.970;2023-06-19T13:41:07;16.85;;;6.18;;
60312;SDS011;46158;52.850;6.970;2023-06-19T13:43:33;17.10;;;6.43;;
60312;SDS011;46158;52.850;6.970;2023-06-19T13:45:59;16.90;;;6.57;;
60312;SDS011;46158;52.850;6.970;2023-06-19T13:48:27;18.80;;;6.75;;
60312;SDS011;46158;52.850;6.970;2023-06-19T13:51:00;17.65;;;6.50;;
60312;SDS011;46158;52.850;6.970;2023-06-19T13:53:26;18.20;;;6.75;;
60312;SDS011;46158;52.850;6.970;2023-06-19T13:55:54;19.00;;;6.60;;
60312;SDS011;46158;52.850;6.970;2023-06-19T13:58:19;17.17;;;6.63;;
60312;SDS011;46158;52.850;6.970;2023-06-19T14:00:45;19.80;;;7.57;;
60312;SDS011;46158;52.850;6.970;2023-06-19T14:03:12;17.92;;;6.55;;
60312;SDS011;46158;52.850;6.970;2023-06-19T14:05:39;17.70;;;6.85;;
60312;SDS011;46158;52.850;6.970;2023-06-19T14:08:05;18.40;;;6.80;;
60312;SDS011;46158;52.850;6.970;2023-06-19T14:10:34;17.70;;;6.72;;
60312;SDS011;46158;52.850;6.970;2023-06-19T14:13:00;19.85;;;6.88;;
60312;SDS011;46158;52.850;6.970;2023-06-19T14:15:26;18.23;;;6.80;;
60312;SDS011;46158;52.850;6.970;2023-06-19T14:17:55;18.15;;;6.78;;
60312;SDS011;46158;52.850;6.970;2023-06-19T14:20:21;17.30;;;6.47;;
60312;SDS011;46158;52.850;6.970;2023-06-19T14:22:47;16.73;;;6.75;;
60312;SDS011;46158;52.850;6.970;2023-06-19T14:25:13;18.65;;;7.05;;
60312;SDS011;46158;52.850;6.970;2023-06-19T14:27:39;17.38;;;6.47;;
60312;SDS011;46158;52.850;6.970;2023-06-19T14:30:04;20.00;;;7.18;;
60312;SDS011;46158;52.850;6.970;2023-06-19T14:32:34;17.23;;;6.60;;
60312;SDS011;46158;52.850;6.970;2023-06-19T14:35:01;16.63;;;6.38;;
60312;SDS011;46158;52.850;6.970;2023-06-19T14:37:28;17.73;;;6.07;;
60312;SDS011;46158;52.850;6.970;2023-06-19T14:39:54;16.70;;;6.80;;
60312;SDS011;46158;52.850;6.970;2023-06-19T14:42:20;16.00;;;6.60;;
60312;SDS011;46158;52.850;6.970;2023-06-19T14:44:46;16.17;;;6.60;;
60312;SDS011;46158;52.850;6.970;2023-06-19T14:47:18;16.87;;;6.40;;
60312;SDS011;46158;52.850;6.970;2023-06-19T14:49:44;17.02;;;6.85;;
60312;SDS011;46158;52.850;6.970;2023-06-19T14:52:35;17.03;;;6.70;;
60312;SDS011;46158;52.850;6.970;2023-06-19T14:55:01;17.20;;;6.63;;
60312;SDS011;46158;52.850;6.970;2023-06-19T14:57:27;17.40;;;6.45;;
60312;SDS011;46158;52.850;6.970;2023-06-19T14:59:52;14.90;;;6.00;;
60312;SDS011;46158;52.850;6.970;2023-06-19T15:02:18;17.13;;;6.45;;
60312;SDS011;46158;52.850;6.970;2023-06-19T15:04:44;17.63;;;6.72;;
60312;SDS011;46158;52.850;6.970;2023-06-19T15:07:13;16.33;;;6.05;;